Time;durP1;ratioP1;P1;durP2;ratioP2;P2;SDS_P1;SDS_P2;PMS_P1;PMS_P2;Temp;Humidity;BMP_temperature;BMP_pressure;BME280_temperature;BME280_humidity;BME280_pressure;Samples;Min_cycle;Max_cycle;Signal;HPM_P1;HPM_P2
2023/02/15 00:00:44;;;;;;;20.73;16.20;;;;;;;4.14;100.00;102943.50;2067029;28;20265;-66
2023/02/15 00:01:45;;;;;;;21.50;18.07;;;;;;;4.04;100.00;102921.09;2069118;28;20174;-66
2023/02/15 00:02:45;;;;;;;20.85;17.77;;;;;;;3.79;100.00;102892.72;2073328;28;20201;-67
2023/02/15 00:03:48;;;;;;;19.70;16.57;;;;;;;3.94;100.00;102903.09;2073415;28;20234;-66
2023/02/15 00:04:49;;;;;;;22.80;17.98;;;;;;;4.22;100.00;102948.13;2073352;28;20177;-67
2023/02/15 00:05:50;;;;;;;21.15;16.45;;;;;;;4.25;100.00;102958.44;2072783;28;20720;-66
2023/02/15 00:06:51;;;;;;;20.43;16.33;;;;;;;3.57;100.00;102849.13;2072837;28;20598;-67
2023/02/15 00:07:51;;;;;;;20.80;16.87;;;;;;;4.25;100.00;102961.16;2073392;28;20184;-67
2023/02/15 00:08:53;;;;;;;21.67;17.97;;;;;;;3.56;100.00;102846.72;2073143;28;20693;-66
2023/02/15 00:09:53;;;;;;;20.40;16.58;;;;;;;4.32;100.00;102958.69;2070640;28;20180;-66
2023/02/15 00:11:12;;;;;;;23.97;17.17;;;;;;;3.89;100.00;102886.03;2065264;28;20174;-66
2023/02/15 00:12:14;;;;;;;21.88;17.02;;;;;;;3.64;100.00;102854.91;2067771;28;20181;-67
2023/02/15 00:13:15;;;;;;;20.40;16.30;;;;;;;4.36;100.00;102959.63;2073385;28;20165;-66
2023/02/15 00:14:20;;;;;;;22.47;17.03;;;;;;;3.73;100.00;102857.56;2072747;28;20177;-66
2023/02/15 00:15:21;;;;;;;22.52;16.70;;;;;;;4.45;100.00;102967.81;2072826;28;20202;-67
2023/02/15 00:16:21;;;;;;;21.37;16.83;;;;;;;4.28;100.00;102935.81;2065681;28;20695;-66
2023/02/15 00:17:22;;;;;;;21.10;17.33;;;;;;;4.44;100.00;102961.53;2071229;28;20219;-66
2023/02/15 00:18:22;;;;;;;19.90;16.90;;;;;;;4.44;100.00;102968.94;2073248;28;20177;-67
2023/02/15 00:19:22;;;;;;;21.47;16.97;;;;;;;4.40;100.00;102962.50;2069155;28;20194;-66
2023/02/15 00:20:23;;;;;;;21.43;17.67;;;;;;;4.47;100.00;102968.28;2064579;28;20220;-66
2023/02/15 00:21:23;;;;;;;19.80;16.17;;;;;;;4.47;100.00;102969.06;2064573;28;20171;-67
2023/02/15 00:22:25;;;;;;;20.07;16.43;;;;;;;4.47;100.00;102966.34;2072869;28;20170;-66
2023/02/15 00:23:26;;;;;;;22.20;17.77;;;;;;;4.49;100.00;102969.56;2065161;28;20184;-66
2023/02/15 00:24:27;;;;;;;22.17;17.08;;;;;;;4.49;100.00;102969.56;2072306;28;20822;-66
2023/02/15 00:25:27;;;;;;;21.37;16.73;;;;;;;4.49;100.00;102968.75;2073177;28;20196;-66
2023/02/15 00:26:28;;;;;;;20.33;16.93;;;;;;;4.47;100.00;102971.81;2073169;28;20228;-66
2023/02/15 00:27:28;;;;;;;20.93;16.80;;;;;;;4.46;100.00;102966.69;2073333;28;20268;-67
2023/02/15 00:28:30;;;;;;;22.20;17.30;;;;;;;4.44;100.00;102968.94;2073202;28;20197;-66
2023/02/15 00:29:30;;;;;;;19.80;16.45;;;;;;;4.43;100.00;102978.31;2073288;28;20169;-66
2023/02/15 00:30:31;;;;;;;20.00;16.57;;;;;;;4.43;100.00;102968.16;2073302;28;20181;-66
2023/02/15 00:31:33;;;;;;;21.70;17.30;;;;;;;4.43;100.00;102967.34;2073283;28;20209;-66
2023/02/15 00:32:33;;;;;;;19.38;16.27;;;;;;;4.44;100.00;102972.50;2065455;28;20726;-67
2023/02/15 00:33:34;;;;;;;20.53;16.63;;;;;;;4.15;100.00;102927.84;2071597;28;20614;-66
2023/02/15 00:34:34;;;;;;;20.20;15.47;;;;;;;4.45;100.00;102973.28;2067753;28;20240;-67
2023/02/15 00:35:34;;;;;;;19.97;16.33;;;;;;;4.46;100.00;102961.97;2065059;28;20182;-66
2023/02/15 00:36:35;;;;;;;18.67;15.60;;;;;;;4.47;100.00;102966.34;2067751;28;20656;-66
2023/02/15 00:37:35;;;;;;;20.70;16.33;;;;;;;4.49;100.00;102964.06;2073357;28;20571;-66
2023/02/15 00:38:36;;;;;;;20.37;16.77;;;;;;;4.47;100.00;102968.28;2073035;28;20209;-66
2023/02/15 00:39:37;;;;;;;20.25;16.23;;;;;;;4.41;100.00;102956.69;2073282;28;20181;-67
2023/02/15 00:40:37;;;;;;;21.30;16.73;;;;;;;4.47;100.00;102962.81;2073001;28;20265;-66
2023/02/15 00:41:38;;;;;;;23.30;16.43;;;;;;;3.34;100.00;102790.25;2073207;28;20678;-66
2023/02/15 00:42:38;;;;;;;21.63;16.80;;;;;;;4.45;100.00;102965.06;2072939;28;20621;-66
2023/02/15 00:43:39;;;;;;;20.63;16.33;;;;;;;4.35;100.00;102946.22;2072839;28;20203;-66
2023/02/15 00:44:39;;;;;;;20.87;16.57;;;;;;;4.49;100.00;102966.00;2073202;28;20212;-66
2023/02/15 00:45:39;;;;;;;20.33;16.13;;;;;;;4.47;100.00;102963.59;2072854;28;20178;-67
2023/02/15 00:46:40;;;;;;;18.30;15.43;;;;;;;4.49;100.00;102971.50;2073130;28;20175;-67
2023/02/15 00:47:40;;;;;;;21.30;16.03;;;;;;;4.48;100.00;102964.41;2073161;28;20203;-66
2023/02/15 00:48:41;;;;;;;23.20;16.53;;;;;;;3.85;100.00;102872.19;2072986;28;20631;-66
2023/02/15 00:49:41;;;;;;;20.23;16.47;;;;;;;4.48;100.00;102967.97;2069165;28;20276;-67
2023/02/15 00:50:45;;;;;;;19.57;15.77;;;;;;;4.49;100.00;102971.50;2065154;28;20180;-66
2023/02/15 00:51:45;;;;;;;21.60;16.13;;;;;;;4.47;100.00;102971.03;2072564;28;20180;-66
2023/02/15 00:52:46;;;;;;;20.93;16.17;;;;;;;4.48;100.00;102970.72;2080716;28;20230;-66
2023/02/15 00:53:47;;;;;;;21.43;16.47;;;;;;;4.41;100.00;102961.41;2072390;28;20581;-67
2023/02/15 00:54:47;;;;;;;19.53;16.27;;;;;;;4.46;100.00;102967.47;2067348;28;20206;-66
2023/02/15 00:55:48;;;;;;;21.73;16.07;;;;;;;4.45;100.00;102965.88;2069021;28;20724;-66
2023/02/15 00:56:48;;;;;;;20.50;16.27;;;;;;;4.42;100.00;102963.00;2072781;28;20561;-67
2023/02/15 00:57:49;;;;;;;22.30;16.60;;;;;;;4.40;100.00;102981.72;2072839;28;20173;-67
2023/02/15 00:58:49;;;;;;;20.17;16.20;;;;;;;4.39;100.00;102974.63;2073186;28;20185;-67
2023/02/15 00:59:50;;;;;;;21.80;15.40;;;;;;;4.40;100.00;102974.31;2072615;28;20185;-66
2023/02/15 01:00:51;;;;;;;22.77;17.07;;;;;;;4.40;100.00;102968.81;2072762;28;20183;-66
2023/02/15 01:01:52;;;;;;;19.98;16.00;;;;;;;4.41;100.00;102970.41;2068934;28;20206;-66
2023/02/15 01:02:52;;;;;;;20.60;16.40;;;;;;;3.72;100.00;102877.91;2067071;28;20186;-67
2023/02/15 01:03:52;;;;;;;21.40;16.10;;;;;;;4.29;100.00;102955.81;2072027;28;20246;-67
2023/02/15 01:04:53;;;;;;;20.80;16.20;;;;;;;4.34;100.00;102963.84;2064950;28;20193;-67
2023/02/15 01:05:53;;;;;;;23.43;16.57;;;;;;;4.35;100.00;102968.19;2064075;28;20190;-67
2023/02/15 01:06:54;;;;;;;20.23;15.67;;;;;;;4.34;100.00;102967.41;2064416;28;20187;-67
2023/02/15 01:07:54;;;;;;;20.93;15.67;;;;;;;3.35;100.00;102808.31;2065050;28;20190;-66
2023/02/15 01:08:54;;;;;;;21.07;16.20;;;;;;;4.28;100.00;102963.25;2064889;28;20177;-66
2023/02/15 01:09:55;;;;;;;21.43;16.43;;;;;;;4.30;100.00;102966.47;2065344;28;20256;-66
2023/02/15 01:10:55;;;;;;;24.13;16.70;;;;;;;4.24;100.00;102951.34;2072958;28;20741;-66
2023/02/15 01:11:56;;;;;;;22.57;16.83;;;;;;;4.27;100.00;102947.91;2072971;28;20189;-67
2023/02/15 01:12:57;;;;;;;22.87;17.03;;;;;;;4.30;100.00;102954.66;2073464;28;20185;-66
2023/02/15 01:13:58;;;;;;;20.93;15.90;;;;;;;4.32;100.00;102955.16;2074572;28;20242;-67
2023/02/15 01:14:58;;;;;;;20.60;16.65;;;;;;;4.31;100.00;102959.03;2074603;28;20216;-67
2023/02/15 01:15:59;;;;;;;22.07;16.60;;;;;;;4.09;100.00;102943.69;2074358;28;20180;-67
2023/02/15 01:16:59;;;;;;;21.07;16.30;;;;;;;4.30;100.00;102962.91;2066450;28;20212;-66
2023/02/15 01:17:59;;;;;;;19.83;17.10;;;;;;;3.73;100.00;102885.00;2066436;28;20181;-67
2023/02/15 01:19:02;;;;;;;19.90;16.17;;;;;;;4.29;100.00;102962.13;2066284;28;20251;-66
2023/02/15 01:20:03;;;;;;;20.67;16.98;;;;;;;4.29;100.00;102964.03;2066465;28;20181;-67
2023/02/15 01:21:14;;;;;;;19.02;16.35;;;;;;;4.30;100.00;102965.66;2068046;28;20178;-67
2023/02/15 01:22:14;;;;;;;19.10;16.42;;;;;;;4.29;100.00;102966.78;2074532;28;20647;-67
2023/02/15 01:23:15;;;;;;;20.43;16.23;;;;;;;4.04;100.00;102943.06;2074596;28;20533;-66
2023/02/15 01:24:15;;;;;;;23.10;16.87;;;;;;;3.92;100.00;102904.56;2074786;28;20168;-66
2023/02/15 01:25:21;;;;;;;21.93;16.63;;;;;;;4.34;100.00;102966.59;2074479;28;20183;-67
2023/02/15 01:26:21;;;;;;;21.80;16.75;;;;;;;4.34;100.00;102959.19;2068164;28;20199;-67
2023/02/15 01:27:22;;;;;;;23.40;16.60;;;;;;;4.34;100.00;102966.59;2071590;28;20189;-66
2023/02/15 01:28:22;;;;;;;20.80;17.07;;;;;;;4.39;100.00;102971.88;2073865;28;20223;-66
2023/02/15 01:29:23;;;;;;;22.30;16.30;;;;;;;4.36;100.00;102970.63;2074452;28;20278;-67
2023/02/15 01:30:23;;;;;;;23.10;17.03;;;;;;;4.39;100.00;102964.47;2074379;28;20178;-66
2023/02/15 01:31:23;;;;;;;21.63;16.47;;;;;;;4.41;100.00;102972.38;2074481;28;20234;-66
2023/02/15 01:32:24;;;;;;;22.03;17.30;;;;;;;4.39;100.00;102969.16;2066452;28;20259;-66
2023/02/15 01:33:25;;;;;;;21.53;16.77;;;;;;;4.29;100.00;102955.81;2066394;28;20181;-66
2023/02/15 01:34:25;;;;;;;21.07;16.93;;;;;;;4.38;100.00;102973.03;2070832;28;20577;-67
2023/02/15 01:35:27;;;;;;;20.80;16.80;;;;;;;4.40;100.00;103001.75;2074478;28;20601;-67
2023/02/15 01:36:28;;;;;;;20.23;16.25;;;;;;;4.42;100.00;102968.50;2071925;28;20177;-67
2023/02/15 01:37:31;;;;;;;18.02;15.85;;;;;;;3.85;100.00;102898.81;2067721;28;20182;-66
2023/02/15 01:38:32;;;;;;;20.23;16.00;;;;;;;4.04;100.00;102908.22;2073991;28;20651;-67
2023/02/15 01:39:32;;;;;;;21.03;17.50;;;;;;;4.29;100.00;102947.56;2074581;28;20173;-67
2023/02/15 01:40:33;;;;;;;21.00;17.00;;;;;;;4.44;100.00;102961.53;2074540;28;20188;-67
2023/02/15 01:41:33;;;;;;;20.17;16.50;;;;;;;4.40;100.00;102960.56;2074424;28;20193;-66
2023/02/15 01:42:34;;;;;;;20.27;17.00;;;;;;;4.48;100.00;102964.41;2074294;28;20212;-66
2023/02/15 01:43:42;;;;;;;19.50;16.07;;;;;;;4.47;100.00;102960.84;2074313;28;20171;-67
2023/02/15 01:44:48;;;;;;;21.65;17.48;;;;;;;4.40;100.00;102951.53;2074465;28;20737;-66
2023/02/15 01:45:49;;;;;;;20.00;15.98;;;;;;;3.73;100.00;102833.72;2074405;28;20181;-67
2023/02/15 01:46:53;;;;;;;20.85;17.02;;;;;;;3.55;100.00;102809.47;2074367;28;20191;-67
2023/02/15 01:48:11;;;;;;;19.23;16.30;;;;;;;4.50;100.00;102951.94;2066326;28;20178;-66
2023/02/15 01:49:16;;;;;;;21.52;16.30;;;;;;;4.50;100.00;102951.94;2066275;28;20173;-66
2023/02/15 01:50:29;;;;;;;19.50;16.05;;;;;;;3.83;100.00;102841.53;2074088;28;20665;-66
2023/02/15 01:51:33;;;;;;;22.95;16.45;;;;;;;4.53;100.00;102955.97;2066283;28;20247;-67
2023/02/15 01:52:37;;;;;;;18.83;15.73;;;;;;;4.22;100.00;102904.22;2066247;28;20564;-67
2023/02/15 01:53:49;;;;;;;21.92;16.67;;;;;;;4.49;100.00;102955.84;2066272;28;20212;-67
2023/02/15 01:54:50;;;;;;;19.45;15.98;;;;;;;4.50;100.00;102956.63;2066395;28;20562;-67
2023/02/15 01:56:14;;;;;;;21.23;15.93;;;;;;;4.39;100.00;102945.25;2066292;28;20176;-67
2023/02/15 01:57:20;;;;;;;20.83;16.20;;;;;;;4.44;100.00;102957.97;2066002;28;20259;-67
2023/02/15 01:58:22;;;;;;;19.63;15.13;;;;;;;4.41;100.00;102958.66;2066303;28;20712;-66
2023/02/15 01:59:24;;;;;;;19.60;15.82;;;;;;;4.37;100.00;102954.97;2066200;28;20175;-67
2023/02/15 02:00:24;;;;;;;20.73;16.33;;;;;;;4.27;100.00;102956.13;2066274;28;20171;-67
2023/02/15 02:01:27;;;;;;;20.53;15.30;;;;;;;4.32;100.00;102957.91;2070137;28;20187;-66
2023/02/15 02:02:28;;;;;;;20.38;15.95;;;;;;;4.27;100.00;102955.34;2074366;28;20698;-66
2023/02/15 02:03:49;;;;;;;21.35;16.02;;;;;;;4.23;100.00;102957.97;2073680;28;20203;-67
2023/02/15 02:04:52;;;;;;;20.17;16.00;;;;;;;3.58;100.00;102869.13;2071099;28;20530;-67
2023/02/15 02:05:53;;;;;;;17.45;14.65;;;;;;;4.18;100.00;102962.84;2066325;28;20238;-67
2023/02/15 02:06:54;;;;;;;20.30;15.37;;;;;;;4.12;100.00;102962.25;2066093;28;20658;-67
2023/02/15 02:07:59;;;;;;;20.60;15.52;;;;;;;4.08;100.00;102953.06;2066883;28;20542;-67
2023/02/15 02:09:00;;;;;;;20.70;16.13;;;;;;;3.88;100.00;102933.81;2074137;28;20669;-66
2023/02/15 02:10:02;;;;;;;19.55;16.02;;;;;;;4.03;100.00;102946.94;2074286;28;20249;-67
2023/02/15 02:11:02;;;;;;;20.30;15.88;;;;;;;4.08;100.00;102958.53;2074246;28;20182;-67
2023/02/15 02:12:03;;;;;;;19.97;16.50;;;;;;;4.09;100.00;102954.66;2074244;28;20182;-66
2023/02/15 02:13:06;;;;;;;20.37;15.00;;;;;;;4.10;100.00;102956.25;2074039;28;20217;-66
2023/02/15 02:14:07;;;;;;;19.13;15.63;;;;;;;4.08;100.00;102950.31;2073630;28;20179;-67
2023/02/15 02:15:08;;;;;;;21.33;16.17;;;;;;;4.06;100.00;102949.81;2073575;28;20210;-67
2023/02/15 02:16:28;;;;;;;18.90;16.13;;;;;;;4.03;100.00;102945.03;2068358;28;20234;-67
2023/02/15 02:18:00;;;;;;;22.38;16.77;;;;;;;4.00;100.00;102945.66;2074076;28;20162;-67
2023/02/15 02:19:34;;;;;;;21.20;16.15;;;;;;;3.97;100.00;102951.03;2074269;28;20557;-67
2023/02/15 02:21:13;;;;;;;21.80;15.98;;;;;;;3.08;100.00;102814.22;2085599;28;20688;-67
2023/02/15 02:22:41;;;;;;;20.58;15.75;;;;;;;3.76;100.00;102918.06;2071991;28;20178;-67
2023/02/15 02:24:03;;;;;;;20.65;16.38;;;;;;;3.93;100.00;102952.81;2065351;28;20166;-67
2023/02/15 02:25:25;;;;;;;19.75;15.63;;;;;;;3.07;100.00;102820.03;2065792;28;20182;-67
2023/02/15 02:27:02;;;;;;;20.45;16.00;;;;;;;3.92;100.00;102954.78;2065183;28;20181;-67
2023/02/15 02:28:24;;;;;;;18.77;14.93;;;;;;;3.86;100.00;102953.31;2066260;28;20194;-67
2023/02/15 02:29:56;;;;;;;18.75;15.07;;;;;;;3.83;100.00;102961.41;2072461;28;20201;-67
2023/02/15 02:31:27;;;;;;;25.45;16.35;;;;;;;3.79;100.00;102965.97;2074077;28;20636;-67
2023/02/15 02:33:05;;;;;;;23.70;16.25;;;;;;;3.77;100.00;102960.81;2073971;28;20182;-67
2023/02/15 02:34:13;;;;;;;21.83;15.40;;;;;;;3.74;100.00;102957.94;2073552;28;20201;-67
2023/02/15 02:35:16;;;;;;;20.90;15.85;;;;;;;3.72;100.00;102962.94;2074023;28;20177;-67
2023/02/15 02:36:26;;;;;;;18.55;15.13;;;;;;;3.70;100.00;102960.50;2068752;28;20190;-67
2023/02/15 02:38:18;;;;;;;20.38;15.88;;;;;;;3.68;100.00;102961.97;2070652;28;20686;-67
2023/02/15 02:39:36;;;;;;;20.20;14.80;;;;;;;3.68;100.00;102962.78;2073044;28;20715;-67
2023/02/15 02:41:02;;;;;;;19.40;14.88;;;;;;;3.66;100.00;102959.59;2072645;28;20173;-67
2023/02/15 02:42:11;;;;;;;20.85;14.70;;;;;;;3.67;100.00;102968.59;2071393;28;20241;-67
2023/02/15 02:43:38;;;;;;;19.00;15.02;;;;;;;3.66;100.00;102956.84;2068536;28;20183;-67
2023/02/15 02:44:52;;;;;;;20.90;15.85;;;;;;;2.95;100.00;102841.84;2073844;28;20539;-67
2023/02/15 02:46:00;;;;;;;21.33;15.35;;;;;;;3.65;100.00;102954.41;2073388;28;20227;-67
2023/02/15 02:47:09;;;;;;;19.75;16.05;;;;;;;3.68;100.00;102961.97;2069262;28;20561;-66
2023/02/15 02:48:17;;;;;;;20.65;16.25;;;;;;;3.70;100.00;102962.47;2070374;28;20205;-66
2023/02/15 02:49:31;;;;;;;21.92;17.02;;;;;;;3.64;100.00;102963.78;2073884;28;20579;-65
2023/02/15 02:50:31;;;;;;;21.10;16.48;;;;;;;3.63;100.00;102962.16;2073952;28;20241;-66
2023/02/15 02:51:32;;;;;;;20.50;16.60;;;;;;;3.19;100.00;102899.63;2073127;28;20196;-66
2023/02/15 02:52:40;;;;;;;21.27;16.80;;;;;;;3.64;100.00;102969.28;2073344;28;20564;-66
2023/02/15 02:53:40;;;;;;;21.30;16.35;;;;;;;3.64;100.00;102963.78;2073330;28;20167;-66
2023/02/15 02:54:41;;;;;;;19.67;16.20;;;;;;;3.64;100.00;102970.06;2073509;28;20176;-66
2023/02/15 02:55:57;;;;;;;21.20;16.27;;;;;;;2.78;100.00;102837.22;2065844;28;20179;-67
2023/02/15 02:57:03;;;;;;;20.10;16.17;;;;;;;3.61;100.00;102969.91;2065486;28;20285;-66
2023/02/15 02:58:25;;;;;;;21.23;16.25;;;;;;;3.57;100.00;102969.78;2065726;28;20175;-66
2023/02/15 02:59:36;;;;;;;20.08;15.88;;;;;;;2.68;100.00;102823.88;2065792;28;20177;-66
2023/02/15 03:00:41;;;;;;;21.90;16.80;;;;;;;3.57;100.00;102974.44;2065057;28;20194;-66
2023/02/15 03:01:42;;;;;;;19.95;15.75;;;;;;;3.58;100.00;102968.63;2073130;28;20268;-66
2023/02/15 03:02:44;;;;;;;21.07;16.50;;;;;;;3.59;100.00;102964.75;2073112;28;20273;-66
2023/02/15 03:03:54;;;;;;;20.02;16.33;;;;;;;3.62;100.00;102966.84;2073233;28;20563;-66
2023/02/15 03:05:03;;;;;;;23.58;16.70;;;;;;;3.57;100.00;102956.06;2073636;28;20200;-66
2023/02/15 03:06:10;;;;;;;20.92;15.95;;;;;;;3.54;100.00;102953.19;2073776;28;20176;-66
2023/02/15 03:07:22;;;;;;;21.33;16.60;;;;;;;3.61;100.00;102965.25;2073585;28;20181;-66
2023/02/15 03:08:27;;;;;;;23.08;15.98;;;;;;;3.64;100.00;102964.56;2068432;28;20185;-66
2023/02/15 03:09:43;;;;;;;25.33;16.40;;;;;;;3.17;100.00;102899.13;2070329;28;20708;-66
2023/02/15 03:10:44;;;;;;;24.65;15.88;;;;;;;3.64;100.00;102969.28;2073847;28;20177;-66
2023/02/15 03:11:45;;;;;;;26.77;16.33;;;;;;;3.46;100.00;102946.59;2069501;28;20188;-65
2023/02/15 03:12:46;;;;;;;21.60;16.42;;;;;;;3.66;100.00;102984.25;2068114;28;20175;-65
2023/02/15 03:13:48;;;;;;;23.17;16.35;;;;;;;3.68;100.00;102981.16;2073022;28;20185;-66
2023/02/15 03:15:01;;;;;;;24.60;15.52;;;;;;;2.60;100.00;102823.91;2065620;28;20171;-67
2023/02/15 03:17:30;;;;;;;21.08;15.57;;;;;;;3.49;100.00;102972.56;2066037;28;20196;-66
2023/02/15 03:18:40;;;;;;;21.67;15.90;;;;;;;3.62;100.00;102991.53;2073921;28;20176;-67
2023/02/15 03:19:43;;;;;;;21.77;16.20;;;;;;;3.59;100.00;102983.16;2073819;28;20166;-66
2023/02/15 03:20:44;;;;;;;21.40;15.98;;;;;;;3.57;100.00;102988.16;2073754;28;20188;-66
2023/02/15 03:22:09;;;;;;;22.55;16.05;;;;;;;2.40;100.00;102803.50;2073475;28;20694;-66
2023/02/15 03:23:18;;;;;;;26.23;16.52;;;;;;;3.53;100.00;103009.94;2081369;28;20603;-66
2023/02/15 03:24:23;;;;;;;21.23;15.98;;;;;;;3.53;100.00;102988.00;2074479;28;20166;-66
2023/02/15 03:25:36;;;;;;;22.35;16.10;;;;;;;3.33;100.00;102955.03;2066985;28;20183;-66
2023/02/15 03:26:38;;;;;;;20.38;15.25;;;;;;;3.53;100.00;102990.75;2065615;28;20165;-66
2023/02/15 03:27:44;;;;;;;20.83;15.10;;;;;;;3.49;100.00;102981.56;2065569;28;20215;-66
2023/02/15 03:28:48;;;;;;;20.92;15.13;;;;;;;2.68;100.00;102850.47;2069040;28;20748;-66
2023/02/15 03:29:55;;;;;;;19.13;14.93;;;;;;;3.48;100.00;102984.63;2070618;28;20608;-66
2023/02/15 03:31:00;;;;;;;20.02;15.38;;;;;;;3.47;100.00;102989.31;2067666;28;20170;-66
2023/02/15 03:32:04;;;;;;;23.00;15.63;;;;;;;3.44;100.00;102989.97;2073668;28;20184;-66
2023/02/15 03:33:07;;;;;;;18.85;14.80;;;;;;;2.70;100.00;102881.88;2073660;28;20181;-66
2023/02/15 03:34:11;;;;;;;19.05;15.88;;;;;;;2.23;100.00;102789.84;2073218;28;20260;-66
2023/02/15 03:35:12;;;;;;;20.50;15.93;;;;;;;3.44;100.00;102984.47;2066217;28;20275;-66
2023/02/15 03:36:48;;;;;;;21.63;15.83;;;;;;;3.24;100.00;102948.78;2070285;28;20192;-66
2023/02/15 03:38:01;;;;;;;22.50;15.57;;;;;;;3.43;100.00;102982.88;2065470;28;20167;-66
2023/02/15 03:39:11;;;;;;;22.70;15.35;;;;;;;3.39;100.00;103003.06;2065470;28;20590;-66
2023/02/15 03:41:53;;;;;;;18.30;14.23;;;;;;;3.36;100.00;102984.50;2065542;28;20169;-67
2023/02/15 03:43:02;;;;;;;18.33;15.07;;;;;;;3.35;100.00;102972.75;2065207;28;20175;-66
2023/02/15 03:44:30;;;;;;;21.25;15.15;;;;;;;3.33;100.00;102975.00;2065451;28;20184;-66
2023/02/15 03:45:35;;;;;;;19.80;15.00;;;;;;;3.33;100.00;102974.22;2072178;28;20572;-66
2023/02/15 03:46:52;;;;;;;20.17;15.23;;;;;;;3.32;100.00;102980.81;2073491;28;20173;-66
2023/02/15 03:47:56;;;;;;;20.55;15.23;;;;;;;3.28;100.00;102977.13;2071698;28;20701;-66
2023/02/15 03:49:20;;;;;;;18.45;14.63;;;;;;;3.27;100.00;102979.06;2065174;28;20178;-66
2023/02/15 03:51:52;;;;;;;22.02;14.40;;;;;;;3.22;100.00;102981.16;2081817;28;20240;-66
2023/02/15 03:52:55;;;;;;;21.63;15.50;;;;;;;3.20;100.00;102977.94;2078844;28;20248;-66
2023/02/15 03:53:57;;;;;;;22.98;16.65;;;;;;;3.07;100.00;102987.97;2073026;28;20210;-66
2023/02/15 03:54:58;;;;;;;20.85;16.20;;;;;;;3.17;100.00;102990.38;2073431;28;20659;-66
2023/02/15 03:55:58;;;;;;;22.25;15.75;;;;;;;3.16;100.00;102991.50;2073454;28;20189;-66
2023/02/15 04:02:24;;;;;;;21.25;15.00;;;;;;;2.72;100.00;102928.88;2073341;28;20189;-66
2023/02/15 04:03:36;;;;;;;20.10;14.65;;;;;;;3.16;100.00;102994.25;2073416;28;20178;-66
2023/02/15 04:04:40;;;;;;;20.45;15.05;;;;;;;3.16;100.00;102987.94;2073336;28;20186;-66
2023/02/15 04:05:44;;;;;;;20.65;14.98;;;;;;;3.10;100.00;102984.59;2070360;28;20652;-66
2023/02/15 04:06:45;;;;;;;18.77;15.30;;;;;;;3.14;100.00;102990.22;2066966;28;20217;-66
2023/02/15 04:07:45;;;;;;;20.07;15.97;;;;;;;2.96;100.00;102985.88;2073074;28;20181;-66
2023/02/15 04:11:24;;;;;;;22.00;15.43;;;;;;;2.63;100.00;102894.44;2072465;28;20157;-66
2023/02/15 04:12:24;;;;;;;21.73;15.33;;;;;;;3.28;100.00;102996.31;2073346;28;20178;-66
2023/02/15 04:13:32;;;;;;;22.47;15.87;;;;;;;3.28;100.00;103012.75;2065217;28;20640;-66
2023/02/15 04:16:02;;;;;;;20.15;15.60;;;;;;;3.31;100.00;102995.66;2065318;28;20174;-66
2023/02/15 04:17:06;;;;;;;19.42;15.95;;;;;;;3.11;100.00;102993.59;2065174;28;20198;-66
2023/02/15 04:18:06;;;;;;;20.40;15.60;;;;;;;3.10;100.00;102959.13;2064938;28;20249;-66
2023/02/15 04:25:43;;;;;;;21.73;16.00;;;;;;;3.38;100.00;102996.75;2069994;28;20182;-66
2023/02/15 04:26:44;;;;;;;20.87;15.93;;;;;;;3.38;100.00;102995.97;2065086;28;20178;-66
2023/02/15 04:27:47;;;;;;;21.70;15.80;;;;;;;3.40;100.00;102990.97;2065224;28;20684;-66
2023/02/15 04:28:48;;;;;;;22.23;15.80;;;;;;;3.39;100.00;102997.56;2065133;28;20649;-66
2023/02/15 04:29:49;;;;;;;21.30;15.63;;;;;;;3.11;100.00;102944.28;2065094;28;20209;-66
2023/02/15 04:30:50;;;;;;;20.33;15.00;;;;;;;3.40;100.00;102989.03;2070551;28;20174;-66
2023/02/15 04:31:51;;;;;;;24.37;15.97;;;;;;;3.31;100.00;102982.75;2073414;28;20219;-66
2023/02/15 04:32:53;;;;;;;19.92;15.90;;;;;;;3.37;100.00;102988.84;2073084;28;20180;-66
2023/02/15 04:33:53;;;;;;;24.02;16.27;;;;;;;3.35;100.00;102994.69;2073008;28;20186;-66
2023/02/15 04:34:53;;;;;;;21.97;15.97;;;;;;;3.36;100.00;103001.78;2073038;28;20444;-66
2023/02/15 04:35:54;;;;;;;19.80;15.80;;;;;;;3.33;100.00;102996.16;2073223;28;20174;-66
2023/02/15 04:36:54;;;;;;;20.47;16.17;;;;;;;3.26;100.00;102982.94;2072865;28;20691;-66
2023/02/15 04:37:55;;;;;;;20.70;16.23;;;;;;;2.87;100.00;102916.63;2067747;28;20189;-66
2023/02/15 04:38:56;;;;;;;18.87;15.10;;;;;;;3.35;100.00;102996.63;2069109;28;20185;-66
2023/02/15 04:39:58;;;;;;;20.07;15.77;;;;;;;3.34;100.00;103016.94;2070586;28;20175;-66
2023/02/15 04:40:58;;;;;;;21.38;16.23;;;;;;;3.34;100.00;102995.78;2066000;28;20173;-66
2023/02/15 04:41:59;;;;;;;20.43;16.90;;;;;;;3.23;100.00;102972.63;2073090;28;20181;-66
2023/02/15 04:42:59;;;;;;;20.77;16.37;;;;;;;2.83;100.00;102907.44;2073153;28;20182;-66
2023/02/15 04:44:00;;;;;;;20.93;16.40;;;;;;;3.25;100.00;102977.78;2073166;28;20265;-66
2023/02/15 04:45:01;;;;;;;20.63;16.08;;;;;;;3.04;100.00;102954.94;2072722;28;20259;-66
2023/02/15 04:46:01;;;;;;;22.17;16.80;;;;;;;3.30;100.00;102994.03;2069577;28;20273;-66
2023/02/15 04:47:02;;;;;;;22.07;17.23;;;;;;;3.29;100.00;102995.19;2064724;28;20167;-66
2023/02/15 04:48:02;;;;;;;24.60;16.90;;;;;;;3.31;100.00;103001.94;2066458;28;20543;-66
2023/02/15 04:49:03;;;;;;;21.73;16.93;;;;;;;3.22;100.00;102989.38;2065869;28;20183;-66
2023/02/15 04:50:04;;;;;;;20.50;16.80;;;;;;;3.25;100.00;102992.28;2065764;28;20251;-65
2023/02/15 04:51:09;;;;;;;21.90;16.97;;;;;;;3.34;100.00;103000.50;2073333;28;20195;-66
2023/02/15 04:52:09;;;;;;;24.95;18.25;;;;;;;3.26;100.00;102991.16;2068578;28;20444;-66
2023/02/15 04:53:10;;;;;;;25.93;17.90;;;;;;;3.33;100.00;102996.94;2071502;28;20182;-65
2023/02/15 04:54:11;;;;;;;25.27;17.95;;;;;;;3.32;100.00;103005.47;2074610;28;20183;-66
2023/02/15 04:55:11;;;;;;;26.80;19.00;;;;;;;3.33;100.00;103007.13;2074362;28;20245;-66
2023/02/15 04:56:12;;;;;;;23.77;18.17;;;;;;;3.35;100.00;102989.22;2074656;28;20253;-66
2023/02/15 04:57:12;;;;;;;28.83;18.70;;;;;;;3.32;100.00;103000.81;2074341;28;20607;-66
2023/02/15 04:58:13;;;;;;;27.50;18.37;;;;;;;3.32;100.00;102994.50;2066622;28;20205;-65
2023/02/15 04:59:13;;;;;;;24.60;19.20;;;;;;;2.41;100.00;102856.31;2073288;28;20264;-66
2023/02/15 05:00:14;;;;;;;25.90;19.53;;;;;;;3.35;100.00;102999.34;2068913;28;20253;-66
2023/02/15 05:01:15;;;;;;;24.10;18.87;;;;;;;2.13;100.00;102800.31;2069913;28;20270;-66
2023/02/15 05:02:15;;;;;;;23.87;18.83;;;;;;;3.34;100.00;102997.75;2072917;28;20185;-66
2023/02/15 05:03:16;;;;;;;22.40;18.40;;;;;;;3.41;100.00;103012.56;2074006;28;20246;-66
2023/02/15 05:04:16;;;;;;;22.53;17.43;;;;;;;2.59;100.00;102872.38;2074492;28;20178;-66
2023/02/15 05:05:17;;;;;;;23.17;18.10;;;;;;;3.41;100.00;103009.81;2073902;28;20215;-66
2023/02/15 05:06:17;;;;;;;22.67;17.07;;;;;;;3.09;100.00;102966.50;2074382;28;20540;-65
2023/02/15 05:07:20;;;;;;;21.77;17.27;;;;;;;3.42;100.00;103016.91;2068514;28;20274;-65
2023/02/15 05:08:20;;;;;;;24.40;18.17;;;;;;;3.44;100.00;103011.13;2068773;28;20184;-65
2023/02/15 05:09:20;;;;;;;22.50;17.17;;;;;;;3.47;100.00;103004.97;2069642;28;20174;-65
2023/02/15 05:10:21;;;;;;;22.17;17.17;;;;;;;2.66;100.00;102880.91;2073723;28;20535;-66
2023/02/15 05:11:21;;;;;;;25.03;18.03;;;;;;;3.45;100.00;103004.50;2071398;28;20200;-66
2023/02/15 05:12:22;;;;;;;25.37;18.47;;;;;;;3.45;100.00;103008.03;2071182;28;20574;-67
2023/02/15 05:13:22;;;;;;;25.83;18.33;;;;;;;3.43;100.00;103002.06;2070687;28;20202;-66
2023/02/15 05:14:23;;;;;;;29.50;18.67;;;;;;;3.52;100.00;103007.53;2070059;28;20285;-65
2023/02/15 05:15:23;;;;;;;25.80;18.20;;;;;;;3.53;100.00;103018.16;2070727;28;20185;-64